createdAt,value
2023-03-15T00:01:40.060Z,0.10
2023-03-15T00:04:06.512Z,0.10
2023-03-15T00:06:34.321Z,0.17
2023-03-15T00:09:02.141Z,0.20
2023-03-15T00:11:32.960Z,0.20
2023-03-15T00:14:01.841Z,0.32
2023-03-15T00:16:28.345Z,0.20
2023-03-15T00:18:55.753Z,0.20
2023-03-15T00:21:22.712Z,0.25
2023-03-15T00:23:49.419Z,0.30
2023-03-15T00:26:17.996Z,0.30
2023-03-15T00:28:44.626Z,0.40
2023-03-15T00:31:24.878Z,0.30
2023-03-15T00:33:55.261Z,0.20
2023-03-15T00:36:23.703Z,0.40
2023-03-15T00:38:52.118Z,0.30
2023-03-15T00:41:19.570Z,0.30
2023-03-15T00:43:46.328Z,0.40
2023-03-15T00:46:14.256Z,0.40
2023-03-15T00:48:40.799Z,0.40
2023-03-15T00:51:21.927Z,0.40
2023-03-15T00:53:50.234Z,0.50
2023-03-15T00:56:25.600Z,0.73
2023-03-15T00:58:53.057Z,0.68
2023-03-15T01:01:23.501Z,0.40
2023-03-15T01:03:50.149Z,0.50
2023-03-15T01:06:20.556Z,0.40
2023-03-15T01:08:47.621Z,0.45
2023-03-15T01:11:17.328Z,1.08
2023-03-15T01:13:44.346Z,0.70
2023-03-15T01:16:12.522Z,0.73
2023-03-15T01:18:39.641Z,1.00
2023-03-15T01:21:07.450Z,0.80
2023-03-15T01:23:34.054Z,0.80
2023-03-15T01:26:01.610Z,0.90
2023-03-15T01:28:28.950Z,0.85
2023-03-15T01:30:55.714Z,0.73
2023-03-15T01:33:22.579Z,0.77
2023-03-15T01:35:49.277Z,0.98
2023-03-15T01:38:15.836Z,0.95
2023-03-15T01:40:43.920Z,0.90
2023-03-15T01:43:22.097Z,0.87
2023-03-15T01:46:03.497Z,0.73
2023-03-15T01:48:37.440Z,0.60
2023-03-15T01:51:22.512Z,1.05
2023-03-15T01:53:58.248Z,0.50
2023-03-15T01:56:25.007Z,0.77
2023-03-15T01:58:53.293Z,0.60
2023-03-15T02:01:21.320Z,0.60
2023-03-15T02:03:53.413Z,0.85
2023-03-15T02:06:21.135Z,0.60
2023-03-15T02:08:55.320Z,0.50
2023-03-15T02:11:25.870Z,0.57
2023-03-15T02:13:53.931Z,0.50
2023-03-15T02:16:22.282Z,0.50
2023-03-15T02:18:48.687Z,0.55
2023-03-15T02:21:42.014Z,0.60
2023-03-15T02:24:33.062Z,0.45
2023-03-15T02:26:59.587Z,0.60
2023-03-15T02:29:29.006Z,0.50
2023-03-15T02:31:57.916Z,0.60
2023-03-15T02:34:25.433Z,0.50
2023-03-15T02:36:52.672Z,0.60
2023-03-15T02:39:21.023Z,0.70
2023-03-15T02:41:57.018Z,0.60
2023-03-15T02:44:29.357Z,0.40
2023-03-15T02:46:59.990Z,0.70
2023-03-15T02:49:30.861Z,0.80
2023-03-15T02:51:57.278Z,0.30
2023-03-15T02:54:23.764Z,0.68
2023-03-15T02:56:50.235Z,0.68
2023-03-15T02:59:16.644Z,1.00
2023-03-15T03:01:45.926Z,0.60
2023-03-15T03:04:12.815Z,0.65
2023-03-15T03:06:39.222Z,0.52
2023-03-15T03:09:05.605Z,0.40
2023-03-15T03:11:32.085Z,0.70
2023-03-15T03:13:58.478Z,0.50
2023-03-15T03:16:25.000Z,0.80
2023-03-15T03:18:51.513Z,0.90
2023-03-15T03:21:18.151Z,0.57
2023-03-15T03:23:46.257Z,0.70
2023-03-15T03:26:16.698Z,0.70
2023-03-15T03:28:47.860Z,0.60
2023-03-15T03:31:22.100Z,0.68
2023-03-15T03:33:48.618Z,0.70
2023-03-15T03:36:15.685Z,0.70
2023-03-15T03:38:43.822Z,0.60
2023-03-15T03:41:11.539Z,1.20
2023-03-15T03:43:38.042Z,0.80
2023-03-15T03:46:05.195Z,0.75
2023-03-15T03:48:31.808Z,0.73
2023-03-15T03:50:58.523Z,0.90
2023-03-15T03:53:25.323Z,0.60
2023-03-15T03:55:52.123Z,0.73
2023-03-15T03:58:18.487Z,0.88
2023-03-15T04:00:45.067Z,0.73
2023-03-15T04:03:11.554Z,0.90
2023-03-15T04:05:38.226Z,0.70
2023-03-15T04:08:05.330Z,0.50
2023-03-15T04:10:35.057Z,0.60
2023-03-15T04:13:01.910Z,1.00
2023-03-15T04:15:28.326Z,0.80
2023-03-15T04:17:57.506Z,1.08
2023-03-15T04:20:26.311Z,0.93
2023-03-15T04:22:53.464Z,0.65
2023-03-15T04:25:20.748Z,0.80
2023-03-15T04:27:58.639Z,1.02
2023-03-15T04:30:31.424Z,1.30
2023-03-15T04:33:03.381Z,0.88
2023-03-15T04:35:32.527Z,0.57
2023-03-15T04:37:59.022Z,0.77
2023-03-15T04:40:26.096Z,0.55
2023-03-15T04:42:56.710Z,0.70
2023-03-15T04:45:23.995Z,0.85
2023-03-15T04:47:51.582Z,0.60
2023-03-15T04:50:18.846Z,1.20
2023-03-15T04:52:45.423Z,0.95
2023-03-15T04:55:12.327Z,0.55
2023-03-15T04:57:39.937Z,1.05
2023-03-15T05:00:08.042Z,0.95
2023-03-15T05:02:35.814Z,0.70
2023-03-15T05:05:02.220Z,1.23
2023-03-15T05:07:28.668Z,1.30
2023-03-15T05:09:55.065Z,0.80
2023-03-15T05:12:21.448Z,1.42
2023-03-15T05:14:48.009Z,0.87
2023-03-15T05:17:15.368Z,0.90
2023-03-15T05:19:42.400Z,1.20
2023-03-15T05:22:08.999Z,0.93
2023-03-15T05:24:35.437Z,1.27
2023-03-15T05:27:01.922Z,0.90
2023-03-15T05:29:28.448Z,0.90
2023-03-15T05:31:54.853Z,1.20
2023-03-15T05:34:24.163Z,1.10
2023-03-15T05:36:51.707Z,1.30
2023-03-15T05:39:18.969Z,0.97
2023-03-15T05:41:45.348Z,0.90
2023-03-15T05:44:11.765Z,0.85
2023-03-15T05:46:38.209Z,0.70
2023-03-15T05:49:04.744Z,0.90
2023-03-15T05:51:31.221Z,0.90
2023-03-15T05:53:57.666Z,0.73
2023-03-15T05:56:24.322Z,0.75
2023-03-15T05:58:50.851Z,1.52
2023-03-15T06:01:17.320Z,0.70
2023-03-15T06:03:43.839Z,1.97
2023-03-15T06:06:10.361Z,1.02
2023-03-15T06:08:36.821Z,1.10
2023-03-15T06:11:03.249Z,0.90
2023-03-15T06:13:30.230Z,0.98
2023-03-15T06:15:56.835Z,1.00
2023-03-15T06:18:23.290Z,0.82
2023-03-15T06:20:49.715Z,1.33
2023-03-15T06:23:16.265Z,1.13
2023-03-15T06:25:42.716Z,1.10
2023-03-15T06:28:09.212Z,1.10
2023-03-15T06:30:35.846Z,1.30
2023-03-15T06:33:02.829Z,1.25
2023-03-15T06:35:29.300Z,0.88
2023-03-15T06:37:55.983Z,1.15
2023-03-15T06:40:22.468Z,1.17
2023-03-15T06:42:48.824Z,1.02
2023-03-15T06:45:16.441Z,1.17
2023-03-15T06:47:42.924Z,1.27
2023-03-15T06:50:10.375Z,1.52
2023-03-15T06:52:36.959Z,1.57
2023-03-15T06:55:03.659Z,1.20
2023-03-15T06:57:30.118Z,1.38
2023-03-15T06:59:56.917Z,1.33
2023-03-15T07:02:24.474Z,1.20
2023-03-15T07:04:51.052Z,1.63
2023-03-15T07:07:17.440Z,1.60
2023-03-15T07:09:43.900Z,0.93
2023-03-15T07:12:11.733Z,1.60
2023-03-15T07:14:38.136Z,1.33
2023-03-15T07:17:04.660Z,1.80
2023-03-15T07:19:31.111Z,1.40
2023-03-15T07:21:57.654Z,1.27
2023-03-15T07:24:24.055Z,1.13
2023-03-15T07:26:56.169Z,1.25
2023-03-15T07:29:25.915Z,1.50
2023-03-15T07:31:52.447Z,1.55
2023-03-15T07:34:18.963Z,1.25
2023-03-15T07:36:45.452Z,1.13
2023-03-15T07:39:11.887Z,1.05
2023-03-15T07:41:38.352Z,1.03
2023-03-15T07:44:05.420Z,0.95
2023-03-15T07:46:31.957Z,1.13
2023-03-15T07:48:58.436Z,1.10
2023-03-15T07:51:24.988Z,0.82
2023-03-15T07:53:51.415Z,1.00
2023-03-15T07:56:18.892Z,0.82
2023-03-15T07:58:46.092Z,0.80
2023-03-15T08:01:12.516Z,0.93
2023-03-15T08:03:39.062Z,1.25
2023-03-15T08:06:05.890Z,1.70
2023-03-15T08:08:32.251Z,1.42
2023-03-15T08:10:59.556Z,1.17
2023-03-15T08:13:26.049Z,0.52
2023-03-15T08:15:52.535Z,1.00
2023-03-15T08:18:19.044Z,0.63
2023-03-15T08:20:45.520Z,1.27
2023-03-15T08:23:16.558Z,0.88
2023-03-15T08:25:44.683Z,0.60
2023-03-15T08:28:11.794Z,0.50
2023-03-15T08:30:38.664Z,0.60
2023-03-15T08:33:05.830Z,0.68
2023-03-15T08:35:34.446Z,0.50
2023-03-15T08:38:02.865Z,0.32
2023-03-15T08:40:30.610Z,0.47
2023-03-15T08:42:57.531Z,1.40
2023-03-15T08:45:25.739Z,0.57
2023-03-15T08:47:56.950Z,0.32
2023-03-15T08:50:24.311Z,0.95
2023-03-15T08:52:50.976Z,0.40
2023-03-15T08:55:17.672Z,0.57
2023-03-15T08:57:44.526Z,0.70
2023-03-15T09:00:17.832Z,0.43
2023-03-15T09:02:44.708Z,0.40
2023-03-15T09:05:11.986Z,0.52
2023-03-15T09:07:42.872Z,0.70
2023-03-15T09:10:10.580Z,0.43
2023-03-15T09:12:36.993Z,0.60
2023-03-15T09:15:03.595Z,0.40
2023-03-15T09:17:30.042Z,0.30
2023-03-15T09:19:56.454Z,0.50
2023-03-15T09:22:38.204Z,0.30
2023-03-15T09:25:06.093Z,0.50
2023-03-15T09:27:32.637Z,0.60
2023-03-15T09:29:59.340Z,0.70
2023-03-15T09:32:26.316Z,0.50
2023-03-15T09:34:52.942Z,0.40
2023-03-15T09:37:21.871Z,0.20
2023-03-15T09:39:48.418Z,0.22
2023-03-15T09:42:30.296Z,0.30
2023-03-15T09:45:14.525Z,0.50
2023-03-15T09:47:49.123Z,0.30
2023-03-15T09:50:29.345Z,0.40
2023-03-15T09:52:57.618Z,0.40
2023-03-15T09:55:26.867Z,0.30
2023-03-15T09:57:58.387Z,0.23
2023-03-15T10:00:37.560Z,0.40
2023-03-15T10:03:07.237Z,0.43
2023-03-15T10:05:50.003Z,0.50
2023-03-15T10:08:18.550Z,0.30
2023-03-15T10:11:06.886Z,0.37
2023-03-15T10:13:45.611Z,0.40
2023-03-15T10:16:31.356Z,0.50
2023-03-15T10:19:17.145Z,0.30
2023-03-15T10:21:56.307Z,0.30
2023-03-15T10:24:34.515Z,0.40
2023-03-15T10:27:14.525Z,0.50
2023-03-15T10:29:40.957Z,0.28
2023-03-15T10:32:17.736Z,0.35
2023-03-15T10:34:51.191Z,0.40
2023-03-15T10:37:19.384Z,0.40
2023-03-15T10:39:49.589Z,0.30
2023-03-15T10:42:30.060Z,0.40
2023-03-15T10:44:57.813Z,0.50
2023-03-15T10:47:26.585Z,0.38
2023-03-15T10:49:59.731Z,0.20
2023-03-15T10:52:39.295Z,0.55
2023-03-15T10:55:16.450Z,0.20
2023-03-15T10:57:57.807Z,0.38
2023-03-15T11:00:31.873Z,0.20
2023-03-15T11:03:08.300Z,0.30
2023-03-15T11:05:49.867Z,0.30
2023-03-15T11:08:19.734Z,0.50
2023-03-15T11:10:54.410Z,0.40
2023-03-15T11:13:27.240Z,0.40
2023-03-15T11:16:04.793Z,0.30
2023-03-15T11:18:37.367Z,0.20
2023-03-15T11:21:08.457Z,0.40
2023-03-15T11:23:38.341Z,0.28
2023-03-15T11:26:06.230Z,0.20
2023-03-15T11:28:37.183Z,0.40
2023-03-15T11:31:05.286Z,0.30
2023-03-15T11:33:37.500Z,0.28
2023-03-15T11:36:10.602Z,0.30
2023-03-15T11:38:44.349Z,0.40
2023-03-15T11:41:21.794Z,0.70
2023-03-15T11:43:56.655Z,0.65
2023-03-15T11:46:40.237Z,0.30
2023-03-15T11:49:19.248Z,0.40
2023-03-15T11:51:45.816Z,0.32
2023-03-15T11:54:17.777Z,0.50
2023-03-15T11:56:44.147Z,0.40
2023-03-15T11:59:24.399Z,0.50
2023-03-15T12:02:21.390Z,0.40
2023-03-15T12:04:50.066Z,0.38
2023-03-15T12:07:19.525Z,0.57
2023-03-15T12:09:56.022Z,0.30
2023-03-15T12:12:25.110Z,0.30
2023-03-15T12:15:18.840Z,0.35
2023-03-15T12:17:50.198Z,0.30
2023-03-15T12:20:19.665Z,0.30
2023-03-15T12:22:51.741Z,0.63
2023-03-15T12:25:48.851Z,0.22
2023-03-15T12:28:35.105Z,0.25
2023-03-15T12:31:04.381Z,0.30
2023-03-15T12:33:34.394Z,0.20
2023-03-15T12:36:09.171Z,0.35
2023-03-15T12:38:38.739Z,0.40
2023-03-15T12:41:29.572Z,0.40
2023-03-15T12:44:26.783Z,0.20
2023-03-15T12:46:55.812Z,0.60
2023-03-15T12:49:36.605Z,0.38
2023-03-15T12:52:05.349Z,0.30
2023-03-15T12:55:05.878Z,0.30
2023-03-15T12:57:44.391Z,0.30
2023-03-15T13:00:27.653Z,0.50
2023-03-15T13:03:02.200Z,0.30
2023-03-15T13:05:35.367Z,0.30
2023-03-15T13:08:21.952Z,0.40
2023-03-15T13:11:00.538Z,0.40
2023-03-15T13:14:14.985Z,0.47
2023-03-15T13:16:48.221Z,0.47
2023-03-15T13:19:22.908Z,0.30
2023-03-15T13:21:49.325Z,0.40
2023-03-15T13:24:32.202Z,0.47
2023-03-15T13:27:06.277Z,0.30
2023-03-15T13:29:33.500Z,0.30
2023-03-15T13:32:08.412Z,0.45
2023-03-15T13:34:35.438Z,0.30
2023-03-15T13:37:04.759Z,0.50
2023-03-15T13:39:35.170Z,0.50
2023-03-15T13:42:04.514Z,0.50
2023-03-15T13:44:31.934Z,0.50
2023-03-15T13:46:59.128Z,0.90
2023-03-15T13:49:31.526Z,0.55
2023-03-15T13:51:58.949Z,0.37
2023-03-15T13:54:29.325Z,0.47
2023-03-15T13:57:06.111Z,0.40
2023-03-15T13:59:38.655Z,0.35
2023-03-15T14:02:06.576Z,0.40
2023-03-15T14:04:38.064Z,0.40
2023-03-15T14:07:30.017Z,0.30
2023-03-15T14:10:33.598Z,0.50
2023-03-15T14:13:26.943Z,0.30
2023-03-15T14:16:01.660Z,0.40
2023-03-15T14:18:37.235Z,0.30
2023-03-15T14:21:10.778Z,0.40
2023-03-15T14:23:43.250Z,0.30
2023-03-15T14:26:21.528Z,0.40
2023-03-15T14:29:07.612Z,0.30
2023-03-15T14:31:46.494Z,0.33
2023-03-15T14:34:39.365Z,0.28
2023-03-15T14:37:29.572Z,0.55
2023-03-15T14:40:15.670Z,0.30
2023-03-15T14:42:43.501Z,0.80
2023-03-15T14:45:10.059Z,0.40
2023-03-15T14:47:54.990Z,0.28
2023-03-15T14:50:24.520Z,0.30
2023-03-15T14:52:52.031Z,0.30
2023-03-15T14:55:21.303Z,0.28
2023-03-15T14:57:47.729Z,0.30
2023-03-15T15:00:17.194Z,0.30
2023-03-15T15:02:45.554Z,0.40
2023-03-15T15:05:21.780Z,0.30
2023-03-15T15:07:48.957Z,0.30
2023-03-15T15:10:15.840Z,0.37
2023-03-15T15:12:43.190Z,0.40
2023-03-15T15:15:16.151Z,0.20
2023-03-15T15:17:42.733Z,0.43
2023-03-15T15:20:12.456Z,0.30
2023-03-15T15:22:39.917Z,0.40
2023-03-15T15:25:14.161Z,0.40
2023-03-15T15:27:40.840Z,0.40
2023-03-15T15:30:11.582Z,0.47
2023-03-15T15:32:45.587Z,0.30
2023-03-15T15:35:14.635Z,0.30
2023-03-15T15:37:42.252Z,0.30
2023-03-15T15:40:17.490Z,0.40
2023-03-15T15:42:47.103Z,0.32
2023-03-15T15:45:16.589Z,0.30
2023-03-15T15:47:43.106Z,0.40
2023-03-15T15:50:18.049Z,0.40
2023-03-15T15:52:48.220Z,0.30
2023-03-15T15:55:20.097Z,0.63
2023-03-15T15:57:51.136Z,0.40
2023-03-15T16:00:23.932Z,0.50
2023-03-15T16:02:55.077Z,0.40
2023-03-15T16:05:24.536Z,0.38
2023-03-15T16:07:55.488Z,0.40
2023-03-15T16:10:27.776Z,0.30
2023-03-15T16:12:55.742Z,0.40
2023-03-15T16:15:22.257Z,0.40
2023-03-15T16:17:49.366Z,0.40
2023-03-15T16:20:18.696Z,0.40
2023-03-15T16:22:49.925Z,0.50
2023-03-15T16:25:23.799Z,0.40
2023-03-15T16:27:52.669Z,0.30
2023-03-15T16:30:23.316Z,0.30
2023-03-15T16:32:55.015Z,0.60
2023-03-15T16:35:24.161Z,0.52
2023-03-15T16:37:56.290Z,0.40
2023-03-15T16:40:30.889Z,0.50
2023-03-15T16:42:57.541Z,0.30
2023-03-15T16:45:24.784Z,0.40
2023-03-15T16:47:51.829Z,0.40
2023-03-15T16:50:18.903Z,0.40
2023-03-15T16:52:47.987Z,0.40
2023-03-15T16:55:17.161Z,0.45
2023-03-15T16:57:43.800Z,0.50
2023-03-15T17:00:13.047Z,0.40
2023-03-15T17:02:39.783Z,0.87
2023-03-15T17:05:06.892Z,0.57
2023-03-15T17:07:37.771Z,0.40
2023-03-15T17:10:13.912Z,0.50
2023-03-15T17:12:49.436Z,0.55
2023-03-15T17:15:20.394Z,0.63
2023-03-15T17:17:48.293Z,0.50
2023-03-15T17:20:21.588Z,0.50
2023-03-15T17:22:49.956Z,0.50
2023-03-15T17:25:17.292Z,0.50
2023-03-15T17:27:45.561Z,0.60
2023-03-15T17:30:17.038Z,0.80
2023-03-15T17:32:43.834Z,0.68
2023-03-15T17:35:11.086Z,0.63
2023-03-15T17:37:38.646Z,0.68
2023-03-15T17:40:12.395Z,0.47
2023-03-15T17:42:39.581Z,0.50
2023-03-15T17:45:35.108Z,0.60
2023-03-15T17:48:02.517Z,0.70
2023-03-15T17:50:31.588Z,0.98
2023-03-15T17:53:19.686Z,0.97
2023-03-15T17:55:48.156Z,0.98
2023-03-15T17:58:21.075Z,0.90
2023-03-15T18:00:49.585Z,1.20
2023-03-15T18:03:17.357Z,1.02
2023-03-15T18:05:45.542Z,0.73
2023-03-15T18:08:14.765Z,1.10
2023-03-15T18:10:42.309Z,1.08
2023-03-15T18:13:13.435Z,0.80
2023-03-15T18:15:40.062Z,0.80
2023-03-15T18:18:06.989Z,1.10
2023-03-15T18:20:35.642Z,1.00
2023-03-15T18:23:03.006Z,0.90
2023-03-15T18:25:32.221Z,1.27
2023-03-15T18:27:58.943Z,1.10
2023-03-15T18:30:28.075Z,1.30
2023-03-15T18:32:55.335Z,0.90
2023-03-15T18:35:33.703Z,1.05
2023-03-15T18:38:00.251Z,1.27
2023-03-15T18:40:29.769Z,1.00
2023-03-15T18:42:57.287Z,1.40
2023-03-15T18:45:27.166Z,1.27
2023-03-15T18:47:53.832Z,1.35
2023-03-15T18:50:21.494Z,0.85
2023-03-15T18:52:48.284Z,0.98
2023-03-15T18:55:16.785Z,0.93
2023-03-15T18:57:44.877Z,2.78
2023-03-15T19:00:35.832Z,4.00
2023-03-15T19:03:04.258Z,1.60
2023-03-15T19:05:34.580Z,1.08
2023-03-15T19:08:01.128Z,1.60
2023-03-15T19:10:27.709Z,1.80
2023-03-15T19:12:54.879Z,1.80
2023-03-15T19:15:22.903Z,2.30
2023-03-15T19:17:54.409Z,2.35
2023-03-15T19:20:22.262Z,2.27
2023-03-15T19:22:50.094Z,2.70
2023-03-15T19:25:16.674Z,1.65
2023-03-15T19:27:43.668Z,1.55
2023-03-15T19:30:18.080Z,1.92
2023-03-15T19:32:46.790Z,1.53
2023-03-15T19:35:13.520Z,1.60
2023-03-15T19:37:41.133Z,1.95
2023-03-15T19:40:09.247Z,2.03
2023-03-15T19:42:36.189Z,2.30
2023-03-15T19:45:04.924Z,2.23
2023-03-15T19:47:31.424Z,1.90
2023-03-15T19:49:57.927Z,2.40
2023-03-15T19:52:24.420Z,1.80
2023-03-15T19:54:51.726Z,2.35
2023-03-15T19:57:18.269Z,2.60
2023-03-15T19:59:44.821Z,3.03
2023-03-15T20:02:12.109Z,2.15
2023-03-15T20:04:38.745Z,2.45
2023-03-15T20:07:05.628Z,2.50
2023-03-15T20:09:38.686Z,3.40
2023-03-15T20:12:07.157Z,3.28
2023-03-15T20:14:33.839Z,3.10
2023-03-15T20:17:00.751Z,3.92
2023-03-15T20:19:27.489Z,2.85
2023-03-15T20:21:53.990Z,3.13
2023-03-15T20:24:20.536Z,2.83
2023-03-15T20:26:46.947Z,2.58
2023-03-15T20:29:13.362Z,2.83
2023-03-15T20:31:39.875Z,2.70
2023-03-15T20:34:06.352Z,2.50
2023-03-15T20:36:33.548Z,2.42
2023-03-15T20:39:00.202Z,2.47
2023-03-15T20:41:26.678Z,2.20
2023-03-15T20:43:53.155Z,2.25
2023-03-15T20:46:20.400Z,2.40
2023-03-15T20:48:46.896Z,2.25
2023-03-15T20:51:13.452Z,1.95
2023-03-15T20:53:39.860Z,2.38
2023-03-15T20:56:06.799Z,2.30
2023-03-15T20:58:33.559Z,2.40
2023-03-15T21:01:08.773Z,2.40
2023-03-15T21:03:36.763Z,2.10
2023-03-15T21:06:05.933Z,2.22
2023-03-15T21:08:35.349Z,2.10
2023-03-15T21:11:03.792Z,1.60
2023-03-15T21:13:30.372Z,1.58
2023-03-15T21:15:57.116Z,1.90
2023-03-15T21:18:24.354Z,2.20
2023-03-15T21:21:06.046Z,1.90
2023-03-15T21:23:33.173Z,1.70
2023-03-15T21:26:02.312Z,1.40
2023-03-15T21:28:29.777Z,1.60
2023-03-15T21:30:57.102Z,1.95
2023-03-15T21:33:25.298Z,1.60
2023-03-15T21:35:52.063Z,1.83
2023-03-15T21:38:19.069Z,1.77
2023-03-15T21:40:47.839Z,1.75
2023-03-15T21:43:14.528Z,1.60
2023-03-15T21:45:42.247Z,2.03
2023-03-15T21:48:09.075Z,1.80
2023-03-15T21:50:36.684Z,1.88
2023-03-15T21:53:04.295Z,1.88
2023-03-15T21:55:33.624Z,1.65
2023-03-15T21:58:01.905Z,1.92
2023-03-15T22:00:29.838Z,2.13
2023-03-15T22:02:56.544Z,1.95
2023-03-15T22:05:23.425Z,2.50
2023-03-15T22:07:50.139Z,1.73
2023-03-15T22:10:18.762Z,1.80
2023-03-15T22:12:45.864Z,2.00
2023-03-15T22:15:13.293Z,2.20
2023-03-15T22:17:39.746Z,1.90
2023-03-15T22:20:14.332Z,2.22
2023-03-15T22:22:40.790Z,2.05
2023-03-15T22:25:07.420Z,2.33
2023-03-15T22:27:33.784Z,2.60
2023-03-15T22:30:00.339Z,1.83
2023-03-15T22:32:26.789Z,2.13
2023-03-15T22:34:53.203Z,2.28
2023-03-15T22:37:19.613Z,1.93
2023-03-15T22:39:46.089Z,1.80
2023-03-15T22:42:12.519Z,1.65
2023-03-15T22:44:38.943Z,2.05
2023-03-15T22:47:05.498Z,2.38
2023-03-15T22:49:31.943Z,2.03
2023-03-15T22:51:58.584Z,2.00
2023-03-15T22:54:25.056Z,1.92
2023-03-15T22:56:51.510Z,1.63
2023-03-15T22:59:17.935Z,1.90
2023-03-15T23:01:44.374Z,2.10
2023-03-15T23:04:10.939Z,1.92
2023-03-15T23:06:37.405Z,1.92
2023-03-15T23:09:05.617Z,2.20
2023-03-15T23:11:33.075Z,1.90
2023-03-15T23:13:59.478Z,2.03
2023-03-15T23:16:26.018Z,2.45
2023-03-15T23:18:52.545Z,2.05
2023-03-15T23:21:18.953Z,2.72
2023-03-15T23:23:45.440Z,2.13
2023-03-15T23:26:16.621Z,2.33
2023-03-15T23:28:43.503Z,2.45
2023-03-15T23:31:09.970Z,2.10
2023-03-15T23:33:36.515Z,2.60
2023-03-15T23:36:05.743Z,1.95
2023-03-15T23:38:36.159Z,2.30
2023-03-15T23:41:02.972Z,2.20
2023-03-15T23:43:29.394Z,1.80
2023-03-15T23:45:57.524Z,2.28
2023-03-15T23:48:24.277Z,1.90
2023-03-15T23:50:55.372Z,2.10
2023-03-15T23:53:22.121Z,2.30
2023-03-15T23:55:48.927Z,2.28
2023-03-15T23:58:15.465Z,1.70
